Latest Weather Observations for Warburto Point

IDS60801

Issued at 9:31 pm CDT Friday 6 March 2015 (issued every 30 minutes, with the page automatically refreshed every 10 minutes)

About weather observations | Map of weather stations | Latest weather observations for SA | Other Formats
Station Details ID: 022053 Name: WARBURTO POINT Lat: -34.00 Lon: 137.53 Height: 1.0 m
Data from the previous 72 hours. | See also: Recent months for locations in South Australia
Date/Time
CDT
Temp
°C
App
Temp
°C
Dew
Point
Rel
Hum
%
Delta-T
°C
Wind Press
QNH
hPa
Press
MSL
hPa
Rain
since 9 am
mm
Dir
 
Spd
km/h
Gust
km/h
Spd
kts
Gust
kts
06/09:30pm - - - - - SSW 28 35 15 19 - - -
06/09:00pm - - - - - SSW 28 33 15 18 - - -
06/08:30pm - - - - - SSW 28 35 15 19 - - -
06/08:00pm - - - - - SSW 30 35 16 19 - - -
06/07:30pm - - - - - SW 30 35 16 19 - - -
06/07:00pm - - - - - SW 30 37 16 20 - - -
06/06:30pm - - - - - SW 28 37 15 20 - - -
06/06:00pm - - - - - SW 26 33 14 18 - - -
06/05:30pm - - - - - SW 30 37 16 20 - - -
06/05:00pm - - - - - SW 28 35 15 19 - - -
06/04:30pm - - - - - SW 26 33 14 18 - - -
06/04:00pm - - - - - SW 28 33 15 18 - - -
06/03:30pm - - - - - SW 26 33 14 18 - - -
06/03:00pm - - - - - SW 28 33 15 18 - - -
06/02:30pm - - - - - SW 26 32 14 17 - - -
06/02:00pm - - - - - SSW 24 32 13 17 - - -
06/01:30pm - - - - - SSW 24 33 13 18 - - -
06/01:00pm - - - - - SSW 24 32 13 17 - - -
06/12:30pm - - - - - S 20 28 11 15 - - -
06/12:00pm - - - - - S 26 33 14 18 - - -
06/11:30am - - - - - SSW 24 32 13 17 - - -
06/11:00am - - - - - SSW 22 30 12 16 - - -
06/10:30am - - - - - S 24 30 13 16 - - -
06/10:00am - - - - - S 22 30 12 16 - - -
06/09:30am - - - - - S 19 26 10 14 - - -
06/09:00am - - - - - SSE 19 24 10 13 - - -
06/08:30am - - - - - SE 15 19 8 10 - - -
06/08:00am - - - - - SSW 24 30 13 16 - - -
06/07:30am - - - - - SSW 26 33 14 18 - - -
06/07:00am - - - - - SSW 24 32 13 17 - - -
06/06:30am - - - - - SSW 24 30 13 16 - - -
06/06:00am - - - - - SW 24 33 13 18 - - -
06/05:30am - - - - - SSE 13 15 7 8 - - -
06/05:00am - - - - - ESE 11 13 6 7 - - -
06/04:30am - - - - - E 11 13 6 7 - - -
06/04:00am - - - - - ESE 13 15 7 8 - - -
06/03:30am - - - - - SSE 19 24 10 13 - - -
06/03:00am - - - - - SSE 24 30 13 16 - - -
06/02:30am - - - - - SSE 24 30 13 16 - - -
06/02:00am - - - - - SE 17 30 9 16 - - -
06/01:30am - - - - - SSE 24 32 13 17 - - -
06/01:00am - - - - - S 17 26 9 14 - - -
06/12:30am - - - - - ESE 13 15 7 8 - - -
06/12:00am - - - - - SE 15 20 8 11 - - -
 
Date/Time
CDT
Temp
°C
App
Temp
°C
Dew
Point
Rel
Hum
%
Delta-T
°C
Wind Press
QNH
hPa
Press
MSL
hPa
Rain
since 9 am
mm
Dir
 
Spd
km/h
Gust
km/h
Spd
kts
Gust
kts
05/11:30pm - - - - - SSE 19 22 10 12 - - -
05/11:00pm - - - - - SSE 22 28 12 15 - - -
05/10:30pm - - - - - SSE 20 28 11 15 - - -
05/10:00pm - - - - - SSE 22 28 12 15 - - -
05/09:30pm - - - - - SSW 35 44 19 24 - - -
05/09:00pm - - - - - SSW 33 41 18 22 - - -
05/08:30pm - - - - - SSW 37 46 20 25 - - -
05/08:00pm - - - - - SSW 41 50 22 27 - - -
05/07:30pm - - - - - SSW 37 48 20 26 - - -
05/07:00pm - - - - - SSW 35 44 19 24 - - -
05/06:30pm - - - - - SSW 37 48 20 26 - - -
05/06:00pm - - - - - SSW 41 50 22 27 - - -
05/05:30pm - - - - - SSW 39 52 21 28 - - -
05/05:00pm - - - - - SSW 37 48 20 26 - - -
05/04:30pm - - - - - SW 39 48 21 26 - - -
05/04:00pm - - - - - SW 35 43 19 23 - - -
05/03:30pm - - - - - SW 37 46 20 25 - - -
05/03:00pm - - - - - SW 33 43 18 23 - - -
05/02:30pm - - - - - SW 35 46 19 25 - - -
05/02:00pm - - - - - SW 32 43 17 23 - - -
05/01:30pm - - - - - SSW 32 41 17 22 - - -
05/01:00pm - - - - - SSW 20 35 11 19 - - -
05/12:30pm - - - - - S 22 30 12 16 - - -
05/12:00pm - - - - - S 28 35 15 19 - - -
05/11:30am - - - - - SSE 26 33 14 18 - - -
05/11:00am - - - - - S 32 41 17 22 - - -
05/10:30am - - - - - S 30 39 16 21 - - -
05/10:00am - - - - - S 32 41 17 22 - - -
05/09:30am - - - - - S 32 41 17 22 - - -
05/09:00am - - - - - SSE 28 33 15 18 - - -
05/08:30am - - - - - S 30 39 16 21 - - -
05/08:00am - - - - - SSE 33 41 18 22 - - -
05/07:30am - - - - - SSE 33 41 18 22 - - -
05/07:00am - - - - - SSE 32 39 17 21 - - -
05/06:30am - - - - - SSE 32 44 17 24 - - -
05/06:00am - - - - - SSE 35 44 19 24 - - -
05/05:30am - - - - - SSE 35 44 19 24 - - -
05/05:00am - - - - - SSE 32 39 17 21 - - -
05/04:30am - - - - - SSE 30 37 16 20 - - -
05/04:00am - - - - - S 39 48 21 26 - - -
05/03:30am - - - - - SSW 37 46 20 25 - - -
05/03:00am - - - - - SSW 44 57 24 31 - - -
05/02:41am - - - - - SSW 37 57 20 31 - - -
05/02:30am - - - - - SSW 33 41 18 22 - - -
05/02:00am - - - - - SSW 37 52 20 28 - - -
05/01:30am - - - - - SW 35 46 19 25 - - -
05/01:00am - - - - - SW 32 41 17 22 - - -
05/12:30am - - - - - SSW 33 50 18 27 - - -
05/12:00am - - - - - SW 32 41 17 22 - - -
 
Date/Time
CDT
Temp
°C
App
Temp
°C
Dew
Point
Rel
Hum
%
Delta-T
°C
Wind Press
QNH
hPa
Press
MSL
hPa
Rain
since 9 am
mm
Dir
 
Spd
km/h
Gust
km/h
Spd
kts
Gust
kts
04/11:30pm - - - - - SW 32 41 17 22 - - -
04/11:00pm - - - - - SW 33 44 18 24 - - -
04/10:30pm - - - - - SW 35 46 19 25 - - -
04/10:00pm - - - - - SSW 39 52 21 28 - - -
04/09:30pm - - - - - SSW 43 54 23 29 - - -
04/09:00pm - - - - - SSW 35 44 19 24 - - -
04/08:30pm - - - - - SSW 35 46 19 25 - - -
04/08:00pm - - - - - SSW 33 44 18 24 - - -
04/07:30pm - - - - - SSW 35 44 19 24 - - -
04/07:00pm - - - - - SSW 32 39 17 21 - - -
04/06:30pm - - - - - SSW 32 41 17 22 - - -
04/06:00pm - - - - - SSW 28 35 15 19 - - -
04/05:30pm - - - - - SSW 32 37 17 20 - - -
04/05:00pm - - - - - SSW 28 35 15 19 - - -
04/04:30pm - - - - - SSW 24 32 13 17 - - -
04/04:00pm - - - - - SSW 28 33 15 18 - - -
04/03:30pm - - - - - SSW 30 41 16 22 - - -
04/03:00pm - - - - - SSW 28 35 15 19 - - -
04/02:30pm - - - - - SW 30 37 16 20 - - -
04/02:00pm - - - - - SW 26 33 14 18 - - -
04/01:30pm - - - - - SSW 24 30 13 16 - - -
04/01:00pm - - - - - SSW 20 30 11 16 - - -
04/12:30pm - - - - - SSW 17 22 9 12 - - -
04/12:00pm - - - - - SW 17 26 9 14 - - -
04/11:30am - - - - - SSW 19 28 10 15 - - -
04/11:00am - - - - - S 15 22 8 12 - - -
04/10:30am - - - - - S 19 28 10 15 - - -
04/10:00am - - - - - SSE 17 20 9 11 - - -
04/09:30am - - - - - S 15 24 8 13 - - -
04/09:00am - - - - - SSE 19 26 10 14 - - -
04/08:30am - - - - - SSE 20 28 11 15 - - -
04/08:00am - - - - - SSE 22 26 12 14 - - -
04/07:30am - - - - - SSE 20 28 11 15 - - -
04/07:00am - - - - - SSE 26 30 14 16 - - -
04/06:30am - - - - - SSE 28 32 15 17 - - -
04/06:00am - - - - - SSE 22 28 12 15 - - -
04/05:30am - - - - - SSE 28 33 15 18 - - -
04/05:00am - - - - - SSE 28 33 15 18 - - -
04/04:30am - - - - - S 28 35 15 19 - - -
04/04:00am - - - - - S 26 33 14 18 - - -
04/03:30am - - - - - S 24 30 13 16 - - -
04/03:00am - - - - - SSE 24 32 13 17 - - -
04/02:30am - - - - - SSE 24 30 13 16 - - -
04/02:00am - - - - - SSE 24 32 13 17 - - -
04/01:30am - - - - - SSE 24 30 13 16 - - -
04/01:00am - - - - - SSE 28 33 15 18 - - -
04/12:30am - - - - - SSE 26 33 14 18 - - -
04/12:00am - - - - - SSE 26 33 14 18 - - -
 
Date/Time
CDT
Temp
°C
App
Temp
°C
Dew
Point
Rel
Hum
%
Delta-T
°C
Wind Press
QNH
hPa
Press
MSL
hPa
Rain
since 9 am
mm
Dir
 
Spd
km/h
Gust
km/h
Spd
kts
Gust
kts
03/11:30pm - - - - - SSE 28 33 15 18 - - -
03/11:00pm - - - - - SSE 30 35 16 19 - - -
03/10:30pm - - - - - SSE 26 32 14 17 - - -
03/10:00pm - - - - - SSE 24 33 13 18 - - -

Other Formats:

Comma delimited format used in spreadsheet applications
http://www.bom.gov.au/fwo/IDS60801/IDS60801.94666.axf

JavaScript Object Notation format (JSON) in row-major order
http://www.bom.gov.au/fwo/IDS60801/IDS60801.94666.json